createdAt,value
2022-08-05T00:02:19.885Z,58.46
2022-08-05T00:07:58.799Z,61.59
2022-08-05T00:12:56.233Z,53.35
2022-08-05T00:17:59.429Z,51.80
2022-08-05T00:23:12.639Z,52.15
2022-08-05T00:28:16.654Z,53.75
2022-08-05T00:34:54.078Z,58.92
2022-08-05T00:38:55.116Z,53.33
2022-08-05T00:44:02.293Z,53.48
2022-08-05T00:49:04.800Z,53.69
2022-08-05T00:54:11.627Z,63.76
2022-08-05T00:59:14.057Z,60.64
2022-08-05T01:04:20.094Z,55.58
2022-08-05T01:09:30.452Z,61.05
2022-08-05T01:14:52.129Z,64.88
2022-08-05T01:20:03.682Z,63.78
2022-08-05T01:25:40.467Z,64.87
2022-08-05T01:31:07.532Z,63.57
2022-08-05T01:36:16.987Z,59.88
2022-08-05T01:41:25.597Z,55.74
2022-08-05T01:46:42.829Z,56.70
2022-08-05T01:51:51.851Z,57.06
2022-08-05T01:58:13.084Z,59.37
2022-08-05T02:02:26.276Z,57.18
2022-08-05T02:07:33.671Z,54.29
2022-08-05T02:12:51.682Z,53.54
2022-08-05T02:18:32.588Z,55.64
2022-08-05T02:23:33.510Z,54.45
2022-08-05T02:28:41.686Z,54.88
2022-08-05T02:33:57.958Z,55.10
2022-08-05T02:39:04.444Z,54.65
2022-08-05T02:44:13.512Z,57.80
2022-08-05T02:49:17.199Z,57.80
2022-08-05T02:54:36.040Z,55.89
2022-08-05T02:59:48.082Z,55.29
2022-08-05T03:04:57.376Z,57.05
2022-08-05T03:10:00.363Z,55.57
2022-08-05T03:15:06.979Z,55.62
2022-08-05T03:20:12.019Z,55.98
2022-08-05T03:25:32.834Z,56.53
2022-08-05T03:30:42.254Z,57.51
2022-08-05T03:35:48.653Z,57.79
2022-08-05T03:40:57.601Z,58.69
2022-08-05T03:46:00.411Z,58.95
2022-08-05T03:52:37.634Z,57.76
2022-08-05T03:56:50.034Z,57.55
2022-08-05T04:01:59.039Z,58.93
2022-08-05T04:07:03.350Z,59.10
2022-08-05T04:12:23.642Z,58.63
2022-08-05T04:17:36.518Z,59.33
2022-08-05T04:22:50.697Z,59.00
2022-08-05T04:27:57.464Z,59.33
2022-08-05T04:33:01.578Z,60.71
2022-08-05T04:38:06.852Z,62.93
2022-08-05T04:43:10.993Z,59.69
2022-08-05T04:48:27.984Z,59.54
2022-08-05T04:53:33.520Z,60.33
2022-08-05T04:58:37.870Z,61.09
2022-08-05T05:03:41.857Z,61.49
2022-08-05T05:08:45.240Z,62.33
2022-08-05T05:13:52.575Z,58.83
2022-08-05T05:19:18.071Z,60.88
2022-08-05T05:24:21.764Z,60.34
2022-08-05T05:29:24.475Z,60.21
2022-08-05T05:34:46.890Z,59.13
2022-08-05T05:39:49.302Z,58.49
2022-08-05T05:44:51.867Z,59.90
2022-08-05T05:50:02.150Z,59.23
2022-08-05T05:55:13.282Z,59.16
2022-08-05T06:00:18.818Z,59.34
2022-08-05T06:05:21.901Z,59.86
2022-08-05T06:10:29.452Z,58.92
2022-08-05T06:16:31.066Z,58.97
2022-08-05T06:21:01.582Z,59.12
2022-08-05T06:26:13.527Z,57.92
2022-08-05T06:31:30.549Z,57.51
2022-08-05T06:36:37.491Z,56.12
2022-08-05T06:42:04.093Z,56.84
2022-08-05T06:47:10.185Z,55.99
2022-08-05T06:52:38.203Z,54.87
2022-08-05T06:58:03.933Z,54.53
2022-08-05T07:03:05.177Z,55.22
2022-08-05T07:08:12.261Z,55.24
2022-08-05T07:13:56.877Z,55.22
2022-08-05T07:18:55.680Z,53.60
2022-08-05T07:23:58.658Z,52.82
2022-08-05T07:29:03.880Z,52.54
2022-08-05T07:34:08.330Z,52.22
2022-08-05T07:39:24.363Z,51.71
2022-08-05T07:44:37.038Z,50.68
2022-08-05T07:49:43.516Z,51.35
2022-08-05T07:54:57.221Z,50.50
2022-08-05T08:00:00.542Z,47.31
2022-08-05T08:05:03.309Z,49.32
2022-08-05T08:10:06.994Z,47.79
2022-08-05T08:15:15.081Z,47.85
2022-08-05T08:20:44.658Z,48.36
2022-08-05T08:26:00.349Z,46.22
2022-08-05T08:31:08.032Z,44.91
2022-08-05T08:36:38.830Z,46.17
2022-08-05T08:41:51.682Z,45.85
2022-08-05T08:46:58.701Z,44.05
2022-08-05T08:52:14.480Z,40.70
2022-08-05T08:57:17.646Z,40.63
2022-08-05T09:02:21.682Z,40.45
2022-08-05T09:07:40.077Z,42.71
2022-08-05T09:12:53.139Z,39.25
2022-08-05T09:17:55.684Z,39.87
2022-08-05T09:23:07.844Z,35.44
2022-08-05T09:28:21.247Z,40.04
2022-08-05T09:33:25.424Z,38.57
2022-08-05T09:38:37.794Z,34.51
2022-08-05T09:43:42.332Z,32.63
2022-08-05T09:49:06.533Z,37.44
2022-08-05T09:54:09.305Z,34.08
2022-08-05T09:59:17.176Z,35.03
2022-08-05T10:04:29.368Z,32.46
2022-08-05T10:09:45.457Z,30.25
2022-08-05T10:14:48.040Z,32.90
2022-08-05T10:20:03.766Z,31.28
2022-08-05T10:25:14.552Z,30.84
2022-08-05T10:31:21.066Z,28.84
2022-08-05T10:35:43.898Z,31.39
2022-08-05T10:40:58.424Z,27.27
2022-08-05T10:46:06.257Z,29.48
2022-08-05T10:51:22.409Z,32.25
2022-08-05T10:56:28.056Z,27.19
2022-08-05T11:01:54.750Z,25.96
2022-08-05T11:07:01.330Z,28.47
2022-08-05T11:12:04.425Z,30.55
2022-08-05T11:17:57.615Z,31.55
2022-08-05T11:22:54.076Z,35.19
2022-08-05T11:28:17.215Z,30.24
2022-08-05T11:33:52.502Z,27.75
2022-08-05T11:38:57.834Z,36.46
2022-08-05T11:44:07.064Z,33.12
2022-08-05T11:49:15.651Z,35.09
2022-08-05T11:54:33.260Z,31.93
2022-08-05T11:59:49.545Z,31.86
2022-08-05T12:04:59.120Z,33.06
2022-08-05T12:10:09.203Z,37.98
2022-08-05T12:15:37.846Z,39.90
2022-08-05T12:20:41.324Z,40.86
2022-08-05T12:25:56.720Z,42.33
2022-08-05T12:31:01.941Z,43.07
2022-08-05T12:36:08.483Z,43.75
2022-08-05T12:41:14.671Z,45.09
2022-08-05T12:46:28.892Z,45.61
2022-08-05T12:52:13.619Z,45.44
2022-08-05T12:56:55.060Z,42.99
2022-08-05T13:02:07.000Z,36.73
2022-08-05T13:07:17.383Z,32.90
2022-08-05T13:12:29.476Z,34.65
2022-08-05T13:17:41.347Z,38.42
2022-08-05T13:22:49.719Z,42.36
2022-08-05T13:27:54.379Z,38.84
2022-08-05T13:32:56.917Z,43.92
2022-08-05T13:38:06.081Z,40.02
2022-08-05T13:43:12.065Z,35.29
2022-08-05T13:48:57.550Z,40.73
2022-08-05T13:53:47.786Z,41.82
2022-08-05T13:58:52.856Z,44.44
2022-08-05T14:04:14.801Z,44.60
2022-08-05T14:09:17.504Z,44.00
2022-08-05T14:14:25.505Z,40.45
2022-08-05T14:19:32.573Z,44.48
2022-08-05T14:24:55.005Z,46.88
2022-08-05T14:29:57.657Z,49.33
2022-08-05T14:35:01.683Z,50.60
2022-08-05T14:40:05.226Z,50.39
2022-08-05T14:45:08.877Z,51.78
2022-08-05T14:50:17.476Z,53.45
2022-08-05T14:55:21.124Z,52.63
2022-08-05T15:00:28.222Z,52.27
2022-08-05T15:06:07.818Z,52.60
2022-08-05T15:10:55.183Z,52.04
2022-08-05T15:15:57.631Z,52.85
2022-08-05T15:21:07.356Z,53.37
2022-08-05T15:26:11.123Z,53.37
2022-08-05T15:31:13.672Z,61.01
2022-08-05T15:36:24.539Z,58.79
2022-08-05T15:41:57.930Z,54.30
2022-08-05T15:46:51.060Z,54.33
2022-08-05T15:52:10.210Z,53.99
2022-08-05T15:57:17.666Z,55.43
2022-08-05T16:02:25.435Z,55.87
2022-08-05T16:07:29.450Z,57.03
2022-08-05T16:12:32.217Z,57.28
2022-08-05T16:17:34.815Z,58.73
2022-08-05T16:22:37.727Z,57.42
2022-08-05T16:28:00.512Z,58.31
2022-08-05T16:33:03.391Z,58.50
2022-08-05T16:38:23.877Z,58.47
2022-08-05T16:43:30.425Z,58.10
2022-08-05T16:48:35.446Z,58.31
2022-08-05T16:54:05.614Z,58.54
2022-08-05T16:59:09.348Z,59.10
2022-08-05T17:04:11.858Z,59.12
2022-08-05T17:09:17.848Z,58.27
2022-08-05T17:14:22.286Z,58.45
2022-08-05T17:19:41.729Z,58.50
2022-08-05T17:24:56.729Z,58.92
2022-08-05T17:30:02.388Z,59.37
2022-08-05T17:35:05.798Z,58.23
2022-08-05T17:40:13.274Z,58.70
2022-08-05T17:45:20.458Z,58.58
2022-08-05T17:50:29.939Z,58.99
2022-08-05T17:55:38.184Z,59.00
2022-08-05T18:00:47.790Z,58.76
2022-08-05T18:05:53.661Z,58.91
2022-08-05T18:10:56.979Z,59.51
2022-08-05T18:15:59.653Z,59.44
2022-08-05T18:21:03.234Z,60.40
2022-08-05T18:26:06.107Z,60.56
2022-08-05T18:31:10.346Z,61.39
2022-08-05T18:36:15.404Z,61.55
2022-08-05T18:41:57.226Z,61.25
2022-08-05T18:46:41.218Z,61.59
2022-08-05T18:52:08.648Z,61.59
2022-08-05T18:57:15.190Z,61.45
2022-08-05T19:02:26.991Z,61.74
2022-08-05T19:07:42.331Z,61.19
2022-08-05T19:12:48.788Z,61.04
2022-08-05T19:18:08.036Z,61.80
2022-08-05T19:24:05.010Z,62.39
2022-08-05T19:28:43.439Z,62.01
2022-08-05T19:33:48.709Z,61.91
2022-08-05T19:39:00.815Z,62.25
2022-08-05T19:44:12.956Z,62.02
2022-08-05T19:49:17.449Z,60.59
2022-08-05T19:54:27.094Z,61.38
2022-08-05T20:00:00.522Z,62.05
2022-08-05T20:04:58.844Z,61.80
2022-08-05T20:10:02.841Z,61.44
2022-08-05T20:15:15.957Z,63.07
2022-08-05T20:20:38.856Z,63.14
2022-08-05T20:25:41.612Z,63.75
2022-08-05T20:30:44.098Z,64.28
2022-08-05T20:35:47.535Z,65.57
2022-08-05T20:40:50.336Z,66.47
2022-08-05T20:45:56.254Z,66.18
2022-08-05T20:50:59.328Z,66.58
2022-08-05T20:56:10.639Z,66.59
2022-08-05T21:01:13.371Z,67.04
2022-08-05T21:06:27.966Z,66.20
2022-08-05T21:12:07.515Z,65.95
2022-08-05T21:16:53.839Z,66.14
2022-08-05T21:21:56.393Z,66.16
2022-08-05T21:26:59.001Z,65.64
2022-08-05T21:32:04.835Z,66.02
2022-08-05T21:37:08.357Z,69.07
2022-08-05T21:42:40.959Z,66.88
2022-08-05T21:47:56.192Z,65.88
2022-08-05T21:53:04.599Z,66.08
2022-08-05T21:58:11.716Z,65.52
2022-08-05T22:03:15.375Z,65.83
2022-08-05T22:08:24.024Z,65.69
2022-08-05T22:14:05.961Z,65.05
2022-08-05T22:18:51.493Z,63.26
2022-08-05T22:24:40.091Z,63.20
2022-08-05T22:29:37.144Z,62.05
2022-08-05T22:34:39.598Z,60.09
2022-08-05T22:39:43.118Z,59.24
2022-08-05T22:44:48.471Z,61.51
2022-08-05T22:50:19.553Z,61.06
2022-08-05T22:55:26.045Z,60.19
2022-08-05T23:00:28.825Z,58.60
2022-08-05T23:05:36.120Z,58.57
2022-08-05T23:10:39.197Z,57.74
2022-08-05T23:15:41.867Z,58.21
2022-08-05T23:20:45.610Z,57.13
2022-08-05T23:25:51.003Z,57.79
2022-08-05T23:36:15.952Z,56.42
2022-08-05T23:41:18.584Z,56.28
2022-08-05T23:46:22.215Z,56.36
2022-08-05T23:51:24.768Z,55.35
2022-08-05T23:56:27.615Z,56.21
